createdAt,value
2024-01-14T00:01:05.952Z,5.70
2024-01-14T00:03:34.322Z,5.73
2024-01-14T00:06:01.337Z,5.47
2024-01-14T00:08:28.005Z,5.60
2024-01-14T00:10:54.558Z,4.93
2024-01-14T00:13:21.080Z,5.30
2024-01-14T00:15:47.676Z,5.10
2024-01-14T00:18:14.563Z,5.47
2024-01-14T00:20:41.319Z,5.20
2024-01-14T00:23:07.963Z,5.00
2024-01-14T00:25:34.552Z,5.53
2024-01-14T00:28:01.176Z,5.03
2024-01-14T00:30:27.912Z,5.60
2024-01-14T00:32:54.672Z,5.70
2024-01-14T00:35:21.241Z,4.97
2024-01-14T00:37:48.991Z,5.40
2024-01-14T00:40:15.562Z,4.97
2024-01-14T00:42:42.075Z,5.00
2024-01-14T00:45:08.954Z,5.40
2024-01-14T00:47:35.555Z,4.80
2024-01-14T00:50:02.221Z,5.07
2024-01-14T00:52:29.034Z,5.20
2024-01-14T00:54:55.622Z,5.50
2024-01-14T00:57:22.176Z,4.70
2024-01-14T00:59:48.766Z,4.60
2024-01-14T01:02:15.397Z,4.80
2024-01-14T01:04:41.987Z,5.00
2024-01-14T01:07:09.852Z,5.50
2024-01-14T01:09:37.134Z,5.10
2024-01-14T01:12:04.095Z,4.80
2024-01-14T01:14:30.822Z,4.97
2024-01-14T01:16:57.363Z,5.17
2024-01-14T01:19:23.950Z,5.00
2024-01-14T01:21:50.545Z,5.60
2024-01-14T01:24:17.157Z,5.30
2024-01-14T01:26:43.699Z,4.77
2024-01-14T01:29:10.209Z,5.17
2024-01-14T01:31:45.890Z,5.03
2024-01-14T01:34:16.085Z,4.70
2024-01-14T01:36:42.807Z,4.47
2024-01-14T01:39:09.355Z,4.53
2024-01-14T01:41:35.945Z,4.47
2024-01-14T01:44:02.533Z,5.17
2024-01-14T01:46:29.109Z,4.90
2024-01-14T01:48:56.142Z,4.87
2024-01-14T01:51:22.852Z,5.30
2024-01-14T01:53:49.496Z,4.90
2024-01-14T01:56:16.014Z,5.30
2024-01-14T01:58:42.608Z,4.70
2024-01-14T02:01:09.323Z,4.60
2024-01-14T02:03:36.163Z,5.10
2024-01-14T02:06:02.883Z,5.17
2024-01-14T02:08:29.468Z,4.70
2024-01-14T02:10:56.085Z,4.83
2024-01-14T02:13:22.663Z,4.30
2024-01-14T02:15:49.262Z,4.43
2024-01-14T02:18:15.881Z,4.80
2024-01-14T02:20:42.528Z,4.90
2024-01-14T02:23:09.071Z,5.43
2024-01-14T02:25:35.801Z,4.80
2024-01-14T02:28:02.329Z,5.20
2024-01-14T02:30:29.142Z,4.80
2024-01-14T02:32:56.048Z,4.73
2024-01-14T02:35:22.726Z,4.60
2024-01-14T02:37:49.759Z,4.70
2024-01-14T02:40:17.375Z,4.63
2024-01-14T02:42:44.000Z,5.10
2024-01-14T02:45:10.845Z,4.77
2024-01-14T02:47:37.468Z,4.93
2024-01-14T02:50:04.313Z,4.83
2024-01-14T02:52:30.894Z,4.80
2024-01-14T02:54:57.502Z,4.47
2024-01-14T02:57:24.156Z,4.97
2024-01-14T02:59:50.855Z,5.00
2024-01-14T03:02:17.472Z,4.97
2024-01-14T03:04:44.498Z,4.83
2024-01-14T03:07:11.111Z,4.87
2024-01-14T03:09:37.689Z,5.37
2024-01-14T03:12:04.420Z,5.00
2024-01-14T03:14:31.014Z,4.97
2024-01-14T03:16:57.579Z,4.43
2024-01-14T03:19:24.298Z,5.23
2024-01-14T03:21:52.508Z,4.70
2024-01-14T03:24:19.086Z,5.10
2024-01-14T03:26:45.659Z,5.00
2024-01-14T03:29:12.205Z,4.40
2024-01-14T03:31:38.847Z,4.67
2024-01-14T03:34:05.602Z,4.53
2024-01-14T03:36:32.294Z,4.73
2024-01-14T03:38:59.096Z,5.13
2024-01-14T03:41:25.696Z,4.80
2024-01-14T03:43:52.886Z,5.10
2024-01-14T03:46:19.446Z,4.73
2024-01-14T03:48:46.343Z,4.87
2024-01-14T03:51:13.007Z,5.07
2024-01-14T03:53:39.566Z,4.70
2024-01-14T03:56:06.208Z,4.70
2024-01-14T03:58:32.798Z,5.17
2024-01-14T04:00:59.327Z,5.10
2024-01-14T04:03:25.926Z,5.13
2024-01-14T04:05:52.605Z,4.97
2024-01-14T04:08:19.213Z,5.13
2024-01-14T04:10:45.747Z,4.47
2024-01-14T04:13:13.722Z,5.00
2024-01-14T04:15:40.347Z,5.10
2024-01-14T04:18:07.072Z,5.53
2024-01-14T04:20:33.737Z,5.37
2024-01-14T04:23:00.292Z,4.67
2024-01-14T04:25:26.825Z,4.90
2024-01-14T04:27:53.411Z,4.90
2024-01-14T04:30:20.515Z,5.07
2024-01-14T04:32:50.544Z,4.73
2024-01-14T04:35:17.712Z,4.97
2024-01-14T04:37:44.270Z,5.57
2024-01-14T04:40:11.223Z,5.00
2024-01-14T04:42:37.832Z,4.83
2024-01-14T04:45:04.882Z,5.10
2024-01-14T04:47:31.503Z,4.97
2024-01-14T04:49:58.306Z,4.93
2024-01-14T04:52:24.917Z,4.87
2024-01-14T04:54:51.511Z,5.00
2024-01-14T04:57:18.163Z,5.10
2024-01-14T04:59:45.176Z,5.53
2024-01-14T05:02:11.746Z,5.00
2024-01-14T05:04:38.288Z,4.73
2024-01-14T05:07:05.000Z,4.90
2024-01-14T05:09:31.672Z,5.33
2024-01-14T05:11:58.591Z,5.20
2024-01-14T05:14:25.143Z,4.93
2024-01-14T05:16:51.964Z,4.80
2024-01-14T05:19:18.760Z,4.60
2024-01-14T05:21:45.470Z,5.07
2024-01-14T05:24:12.749Z,4.60
2024-01-14T05:26:41.212Z,4.73
2024-01-14T05:29:07.782Z,4.73
2024-01-14T05:31:34.405Z,4.80
2024-01-14T05:34:01.052Z,5.00
2024-01-14T05:36:27.760Z,5.33
2024-01-14T05:38:54.368Z,5.20
2024-01-14T05:41:20.974Z,4.50
2024-01-14T05:43:47.511Z,5.00
2024-01-14T05:46:14.011Z,4.90
2024-01-14T05:48:40.743Z,4.77
2024-01-14T05:51:07.392Z,5.53
2024-01-14T05:53:33.951Z,4.87
2024-01-14T05:56:00.517Z,4.93
2024-01-14T05:58:27.097Z,4.47
2024-01-14T06:00:53.894Z,4.40
2024-01-14T06:03:20.540Z,4.70
2024-01-14T06:05:47.176Z,4.60
2024-01-14T06:08:13.743Z,5.03
2024-01-14T06:10:40.562Z,4.67
2024-01-14T06:13:07.281Z,4.73
2024-01-14T06:15:34.285Z,5.10
2024-01-14T06:18:01.401Z,4.97
2024-01-14T06:20:28.104Z,4.63
2024-01-14T06:22:55.107Z,4.97
2024-01-14T06:25:21.746Z,5.43
2024-01-14T06:27:48.363Z,5.00
2024-01-14T06:30:15.464Z,4.83
2024-01-14T06:32:42.327Z,4.27
2024-01-14T06:35:09.507Z,4.50
2024-01-14T06:37:36.038Z,5.30
2024-01-14T06:40:02.658Z,4.80
2024-01-14T06:42:29.374Z,4.73
2024-01-14T06:44:55.957Z,4.53
2024-01-14T06:47:22.522Z,5.13
2024-01-14T06:49:56.236Z,5.00
2024-01-14T06:52:30.304Z,5.00
2024-01-14T06:54:56.805Z,4.90
2024-01-14T06:57:23.515Z,4.67
2024-01-14T06:59:50.163Z,5.27
2024-01-14T07:02:16.668Z,4.80
2024-01-14T07:04:43.278Z,5.20
2024-01-14T07:07:11.243Z,4.47
2024-01-14T07:09:37.865Z,5.20
2024-01-14T07:12:04.697Z,4.73
2024-01-14T07:14:31.295Z,4.70
2024-01-14T07:16:57.940Z,4.80
2024-01-14T07:19:24.627Z,4.80
2024-01-14T07:21:51.268Z,4.97
2024-01-14T07:24:17.866Z,4.50
2024-01-14T07:26:44.454Z,4.60
2024-01-14T07:29:10.985Z,4.97
2024-01-14T07:31:37.554Z,5.03
2024-01-14T07:34:04.252Z,4.90
2024-01-14T07:36:30.928Z,4.90
2024-01-14T07:38:59.356Z,4.80
2024-01-14T07:41:26.120Z,5.27
2024-01-14T07:43:53.015Z,4.70
2024-01-14T07:46:19.736Z,4.80
2024-01-14T07:48:46.488Z,5.10
2024-01-14T07:51:13.162Z,4.70
2024-01-14T07:53:39.725Z,5.07
2024-01-14T07:56:06.528Z,5.00
2024-01-14T07:58:33.108Z,4.60
2024-01-14T08:01:02.563Z,4.90
2024-01-14T08:03:33.629Z,4.87
2024-01-14T08:06:01.088Z,4.73
2024-01-14T08:08:28.086Z,4.80
2024-01-14T08:10:54.719Z,5.30
2024-01-14T08:13:21.316Z,5.10
2024-01-14T08:15:57.398Z,4.97
2024-01-14T08:18:29.032Z,5.10
2024-01-14T08:20:55.763Z,4.67
2024-01-14T08:23:22.338Z,5.23
2024-01-14T08:25:48.932Z,5.03
2024-01-14T08:28:15.507Z,5.30
2024-01-14T08:30:42.478Z,4.93
2024-01-14T08:33:09.434Z,4.90
2024-01-14T08:35:36.118Z,5.70
2024-01-14T08:38:02.638Z,4.57
2024-01-14T08:40:29.583Z,4.37
2024-01-14T08:42:56.280Z,4.63
2024-01-14T08:45:23.025Z,4.80
2024-01-14T08:47:49.754Z,5.50
2024-01-14T08:50:16.960Z,5.47
2024-01-14T08:52:43.567Z,5.30
2024-01-14T08:55:10.287Z,4.93
2024-01-14T08:57:36.981Z,5.47
2024-01-14T09:00:05.462Z,5.00
2024-01-14T09:02:32.069Z,5.10
2024-01-14T09:04:58.701Z,5.00
2024-01-14T09:07:26.747Z,5.20
2024-01-14T09:09:53.292Z,5.20
2024-01-14T09:12:19.948Z,4.80
2024-01-14T09:14:46.501Z,5.13
2024-01-14T09:17:13.291Z,4.70
2024-01-14T09:19:40.245Z,4.90
2024-01-14T09:22:07.057Z,4.70
2024-01-14T09:24:33.703Z,4.93
2024-01-14T09:27:00.379Z,5.40
2024-01-14T09:29:27.014Z,5.03
2024-01-14T09:31:53.590Z,5.33
2024-01-14T09:34:20.292Z,5.07
2024-01-14T09:36:46.946Z,4.87
2024-01-14T09:39:14.349Z,5.30
2024-01-14T09:41:52.917Z,4.87
2024-01-14T09:44:19.482Z,4.93
2024-01-14T09:46:46.199Z,5.50
2024-01-14T09:49:15.849Z,4.43
2024-01-14T09:51:44.971Z,5.30
2024-01-14T09:54:11.812Z,4.90
2024-01-14T09:56:38.352Z,4.83
2024-01-14T09:59:05.192Z,4.97
2024-01-14T10:01:32.557Z,4.60
2024-01-14T10:04:02.625Z,5.30
2024-01-14T10:06:29.602Z,4.93
2024-01-14T10:08:58.619Z,5.30
2024-01-14T10:11:25.331Z,5.10
2024-01-14T10:13:51.964Z,5.17
2024-01-14T10:16:50.078Z,5.73
2024-01-14T10:19:06.037Z,5.00
2024-01-14T10:21:34.274Z,5.03
2024-01-14T10:24:01.795Z,5.57
2024-01-14T10:26:28.313Z,4.90
2024-01-14T10:28:54.844Z,4.60
2024-01-14T10:31:21.428Z,5.03
2024-01-14T10:33:48.080Z,4.87
2024-01-14T10:36:14.880Z,5.40
2024-01-14T10:38:41.570Z,5.20
2024-01-14T10:41:08.940Z,4.50
2024-01-14T10:43:35.641Z,4.97
2024-01-14T10:46:02.310Z,5.10
2024-01-14T10:48:29.323Z,5.53
2024-01-14T10:50:57.656Z,5.33
2024-01-14T10:53:27.420Z,4.97
2024-01-14T10:56:00.550Z,5.40
2024-01-14T10:58:28.425Z,5.33
2024-01-14T11:00:58.875Z,5.03
2024-01-14T11:03:25.746Z,4.83
2024-01-14T11:05:52.396Z,5.00
2024-01-14T11:08:19.609Z,4.87
2024-01-14T11:10:46.251Z,4.90
2024-01-14T11:13:40.079Z,4.73
2024-01-14T11:16:37.143Z,4.70
2024-01-14T11:19:14.186Z,4.33
2024-01-14T11:22:06.653Z,5.00
2024-01-14T11:24:40.371Z,5.17
2024-01-14T11:27:13.628Z,4.83
2024-01-14T11:29:45.950Z,4.87
2024-01-14T11:32:17.364Z,4.40
2024-01-14T11:34:51.157Z,5.03
2024-01-14T11:37:30.191Z,4.37
2024-01-14T11:40:09.542Z,4.77
2024-01-14T11:42:48.437Z,5.03
2024-01-14T11:45:33.594Z,4.80
2024-01-14T11:48:00.678Z,4.40
2024-01-14T11:50:27.884Z,4.73
2024-01-14T11:52:56.997Z,4.37
2024-01-14T11:55:27.419Z,4.13
2024-01-14T11:57:56.831Z,4.93
2024-01-14T12:00:25.673Z,4.50
2024-01-14T12:03:11.229Z,4.77
2024-01-14T12:05:40.552Z,4.87
2024-01-14T12:08:08.014Z,4.67
2024-01-14T12:10:36.435Z,4.93
2024-01-14T12:13:04.215Z,4.40
2024-01-14T12:15:35.047Z,4.60
2024-01-14T12:18:04.997Z,4.77
2024-01-14T12:20:32.348Z,4.40
2024-01-14T12:23:00.546Z,4.57
2024-01-14T12:25:30.407Z,4.40
2024-01-14T12:27:57.626Z,4.20
2024-01-14T12:30:35.753Z,4.23
2024-01-14T12:33:08.115Z,4.17
2024-01-14T12:35:36.393Z,4.40
2024-01-14T12:38:04.075Z,4.57
2024-01-14T12:40:31.254Z,4.67
2024-01-14T12:42:58.508Z,4.93
2024-01-14T12:45:25.211Z,4.30
2024-01-14T12:47:58.217Z,4.47
2024-01-14T12:50:26.806Z,4.30
2024-01-14T12:53:06.889Z,4.07
2024-01-14T12:55:33.510Z,4.40
2024-01-14T12:58:01.482Z,4.10
2024-01-14T13:00:29.418Z,4.60
2024-01-14T13:02:56.143Z,4.80
2024-01-14T13:05:22.858Z,3.80
2024-01-14T13:07:50.084Z,4.17
2024-01-14T13:10:16.818Z,3.97
2024-01-14T13:12:43.490Z,4.17
2024-01-14T13:15:11.012Z,4.27
2024-01-14T13:17:37.645Z,4.50
2024-01-14T13:20:04.984Z,4.07
2024-01-14T13:22:33.073Z,4.23
2024-01-14T13:24:59.687Z,4.50
2024-01-14T13:27:26.305Z,4.40
2024-01-14T13:29:52.908Z,4.30
2024-01-14T13:32:19.547Z,3.70
2024-01-14T13:34:46.256Z,3.90
2024-01-14T13:37:12.887Z,4.13
2024-01-14T13:39:40.151Z,4.10
2024-01-14T13:42:07.010Z,3.90
2024-01-14T13:44:33.654Z,3.97
2024-01-14T13:47:00.183Z,3.93
2024-01-14T13:49:26.849Z,3.93
2024-01-14T13:51:54.449Z,3.57
2024-01-14T13:54:21.348Z,4.13
2024-01-14T13:56:51.592Z,4.10
2024-01-14T13:59:18.141Z,4.07
2024-01-14T14:01:44.772Z,4.00
2024-01-14T14:04:11.689Z,3.97
2024-01-14T14:06:39.496Z,4.10
2024-01-14T14:09:10.488Z,3.80
2024-01-14T14:11:38.436Z,3.80
2024-01-14T14:14:05.054Z,4.20
2024-01-14T14:16:39.340Z,4.30
2024-01-14T14:19:08.888Z,4.07
2024-01-14T14:21:45.949Z,4.40
2024-01-14T14:24:21.768Z,3.93
2024-01-14T14:26:48.518Z,3.60
2024-01-14T14:29:15.171Z,3.33
2024-01-14T14:31:48.577Z,3.60
2024-01-14T14:34:19.702Z,4.17
2024-01-14T14:36:47.464Z,4.37
2024-01-14T14:39:14.347Z,4.03
2024-01-14T14:41:40.924Z,4.17
2024-01-14T14:44:09.154Z,4.23
2024-01-14T14:46:36.708Z,3.93
2024-01-14T14:49:03.562Z,3.57
2024-01-14T14:51:37.431Z,3.87
2024-01-14T14:54:06.868Z,3.90
2024-01-14T14:56:33.703Z,4.10
2024-01-14T14:59:00.297Z,3.80
2024-01-14T15:01:36.400Z,3.77
2024-01-14T15:04:08.562Z,3.80
2024-01-14T15:06:35.374Z,3.97
2024-01-14T15:09:02.015Z,3.90
2024-01-14T15:11:31.546Z,4.00
2024-01-14T15:14:01.859Z,4.53
2024-01-14T15:16:28.633Z,4.07
2024-01-14T15:18:55.358Z,4.07
2024-01-14T15:21:22.307Z,4.03
2024-01-14T15:23:49.158Z,4.07
2024-01-14T15:26:15.917Z,4.23
2024-01-14T15:28:42.486Z,3.87
2024-01-14T15:31:09.960Z,4.20
2024-01-14T15:33:37.582Z,4.30
2024-01-14T15:36:05.701Z,4.13
2024-01-14T15:38:33.492Z,3.90
2024-01-14T15:41:06.156Z,4.00
2024-01-14T15:43:35.134Z,4.13
2024-01-14T15:46:02.123Z,3.90
2024-01-14T15:48:29.910Z,4.20
2024-01-14T15:51:03.038Z,4.40
2024-01-14T15:53:31.690Z,4.50
2024-01-14T15:55:58.268Z,4.80
2024-01-14T15:58:24.853Z,4.37
2024-01-14T16:01:03.129Z,4.30
2024-01-14T16:03:36.282Z,4.30
2024-01-14T16:06:03.282Z,4.20
2024-01-14T16:08:30.263Z,4.13
2024-01-14T16:11:04.690Z,4.30
2024-01-14T16:13:34.063Z,4.40
2024-01-14T16:16:01.157Z,4.20
2024-01-14T16:18:27.862Z,4.20
2024-01-14T16:21:02.793Z,4.00
2024-01-14T16:23:33.542Z,3.90
2024-01-14T16:26:00.631Z,4.10
2024-01-14T16:28:27.797Z,4.10
2024-01-14T16:31:05.211Z,4.57
2024-01-14T16:33:38.622Z,4.37
2024-01-14T16:36:05.755Z,4.20
2024-01-14T16:38:32.348Z,4.23
2024-01-14T16:41:03.936Z,4.47
2024-01-14T16:43:32.629Z,7.90
2024-01-14T16:45:59.374Z,13.93
2024-01-14T16:48:26.145Z,14.10
2024-01-14T16:51:02.606Z,12.33
2024-01-14T16:53:35.522Z,11.63
2024-01-14T16:56:03.103Z,12.20
2024-01-14T16:58:29.956Z,11.57
2024-01-14T17:01:08.167Z,10.70
2024-01-14T17:03:42.386Z,10.60
2024-01-14T17:06:12.811Z,9.23
2024-01-14T17:08:41.835Z,9.77
2024-01-14T17:11:10.286Z,9.33
2024-01-14T17:13:37.113Z,9.20
2024-01-14T17:16:09.361Z,9.73
2024-01-14T17:18:39.501Z,9.30
2024-01-14T17:21:06.917Z,9.20
2024-01-14T17:23:33.703Z,9.67
2024-01-14T17:28:31.845Z,13.63
2024-01-14T17:30:58.681Z,15.87
2024-01-14T17:33:25.350Z,17.13
2024-01-14T17:36:01.075Z,15.20
2024-01-14T17:38:32.405Z,14.37
2024-01-14T17:40:59.088Z,14.57
2024-01-14T17:43:25.724Z,13.53
2024-01-14T17:46:03.095Z,14.23
2024-01-14T17:48:34.464Z,13.70
2024-01-14T17:51:02.496Z,14.57
2024-01-14T17:53:29.188Z,13.73
2024-01-14T17:55:55.714Z,13.27
2024-01-14T17:58:22.233Z,13.20
2024-01-14T18:00:49.096Z,13.07
2024-01-14T18:03:15.904Z,13.07
2024-01-14T18:05:42.557Z,12.73
2024-01-14T18:08:12.604Z,11.93
2024-01-14T18:10:39.633Z,12.23
2024-01-14T18:13:12.668Z,11.70
2024-01-14T18:15:41.761Z,12.00
2024-01-14T18:18:09.486Z,11.83
2024-01-14T18:20:36.287Z,11.47
2024-01-14T18:23:10.577Z,11.93
2024-01-14T18:25:39.451Z,11.57
2024-01-14T18:28:06.219Z,11.80
2024-01-14T18:30:32.887Z,11.67
2024-01-14T18:33:09.343Z,11.27
2024-01-14T18:35:42.414Z,11.20
2024-01-14T18:38:10.333Z,10.60
2024-01-14T18:40:36.882Z,11.53
2024-01-14T18:43:04.201Z,11.30
2024-01-14T18:45:31.208Z,11.03
2024-01-14T18:47:59.563Z,10.67
2024-01-14T18:50:26.941Z,10.83
2024-01-14T18:52:53.674Z,10.53
2024-01-14T18:55:20.311Z,10.90
2024-01-14T18:57:46.882Z,10.30
2024-01-14T19:00:14.915Z,9.97
2024-01-14T19:02:44.801Z,10.13
2024-01-14T19:05:13.058Z,9.77
2024-01-14T19:07:40.660Z,10.97
2024-01-14T19:10:07.699Z,10.47
2024-01-14T19:12:34.437Z,10.23
2024-01-14T19:15:01.160Z,10.07
2024-01-14T19:17:29.753Z,9.47
2024-01-14T19:19:57.811Z,10.63
2024-01-14T19:22:24.532Z,10.00
2024-01-14T19:24:51.243Z,10.90
2024-01-14T19:27:18.031Z,10.43
2024-01-14T19:29:44.553Z,9.97
2024-01-14T19:32:11.165Z,10.77
2024-01-14T19:34:37.857Z,10.37
2024-01-14T19:37:06.169Z,10.53
2024-01-14T19:39:33.002Z,10.77
2024-01-14T19:41:59.768Z,10.73
2024-01-14T19:44:26.461Z,10.77
2024-01-14T19:46:53.176Z,10.53
2024-01-14T19:49:20.462Z,10.37
2024-01-14T19:51:47.437Z,10.63
2024-01-14T19:54:14.060Z,10.93
2024-01-14T19:56:44.352Z,10.70
2024-01-14T19:59:11.896Z,10.20
2024-01-14T20:01:38.900Z,9.67
2024-01-14T20:04:06.144Z,10.43
2024-01-14T20:06:32.731Z,10.43
2024-01-14T20:09:02.049Z,10.20
2024-01-14T20:11:28.750Z,10.47
2024-01-14T20:13:56.996Z,9.97
2024-01-14T20:16:23.764Z,9.73
2024-01-14T20:18:50.440Z,10.07
2024-01-14T20:21:17.554Z,10.03
2024-01-14T20:23:46.164Z,11.07
2024-01-14T20:26:15.941Z,9.43
2024-01-14T20:28:42.734Z,10.07
2024-01-14T20:31:09.376Z,10.37
2024-01-14T20:33:36.196Z,10.23
2024-01-14T20:36:04.572Z,10.43
2024-01-14T20:38:31.350Z,9.90
2024-01-14T20:40:57.925Z,9.40
2024-01-14T20:43:24.516Z,9.13
2024-01-14T20:45:51.055Z,9.47
2024-01-14T20:48:17.951Z,9.77
2024-01-14T20:50:44.610Z,9.20
2024-01-14T20:53:11.502Z,10.10
2024-01-14T20:55:38.251Z,9.47
2024-01-14T20:58:04.911Z,10.27
2024-01-14T21:00:31.754Z,9.80
2024-01-14T21:02:58.511Z,9.63
2024-01-14T21:05:26.030Z,9.60
2024-01-14T21:07:52.783Z,9.80
2024-01-14T21:10:19.616Z,9.63
2024-01-14T21:12:46.365Z,9.60
2024-01-14T21:15:14.166Z,10.00
2024-01-14T21:17:41.222Z,10.30
2024-01-14T21:20:08.620Z,9.90
2024-01-14T21:22:35.201Z,9.03
2024-01-14T21:25:02.353Z,9.30
2024-01-14T21:27:28.960Z,9.07
2024-01-14T21:29:55.546Z,8.90
2024-01-14T21:32:22.152Z,9.93
2024-01-14T21:34:48.718Z,9.73
2024-01-14T21:37:17.298Z,9.80
2024-01-14T21:39:44.377Z,10.13
2024-01-14T21:42:11.065Z,10.10
2024-01-14T21:44:37.793Z,11.23
2024-01-14T21:47:04.573Z,10.13
2024-01-14T21:49:31.310Z,10.37
2024-01-14T21:51:58.060Z,9.80
2024-01-14T21:54:30.123Z,9.80
2024-01-14T21:56:57.488Z,9.67
2024-01-14T21:59:24.041Z,9.30
2024-01-14T22:01:50.658Z,9.30
2024-01-14T22:04:17.247Z,9.87
2024-01-14T22:06:43.834Z,10.20
2024-01-14T22:09:11.003Z,9.13
2024-01-14T22:11:37.702Z,9.47
2024-01-14T22:14:04.377Z,9.67
2024-01-14T22:16:31.290Z,10.37
2024-01-14T22:18:58.065Z,9.33
2024-01-14T22:21:53.774Z,10.17
2024-01-14T22:24:20.299Z,9.90
2024-01-14T22:26:46.943Z,10.10
2024-01-14T22:29:23.928Z,10.17
2024-01-14T22:31:50.698Z,9.47
2024-01-14T22:34:18.006Z,9.40
2024-01-14T22:36:44.639Z,9.53
2024-01-14T22:39:11.193Z,8.97
2024-01-14T22:41:38.370Z,9.63
2024-01-14T22:44:05.426Z,9.43
2024-01-14T22:46:32.063Z,9.43
2024-01-14T22:48:59.321Z,10.03
2024-01-14T22:51:26.004Z,9.90
2024-01-14T22:53:52.677Z,9.90
2024-01-14T22:56:19.591Z,10.50
2024-01-14T22:58:46.095Z,10.00
2024-01-14T23:01:15.168Z,10.10
2024-01-14T23:03:42.963Z,10.30
2024-01-14T23:06:13.258Z,9.40
2024-01-14T23:08:39.958Z,9.70
2024-01-14T23:11:06.488Z,9.70
2024-01-14T23:13:33.085Z,9.57
2024-01-14T23:16:00.385Z,9.23
2024-01-14T23:18:27.144Z,9.20
2024-01-14T23:20:53.849Z,8.87
2024-01-14T23:23:20.370Z,8.63
2024-01-14T23:25:46.886Z,9.60
2024-01-14T23:28:13.447Z,8.83
2024-01-14T23:30:40.042Z,8.63
2024-01-14T23:33:06.890Z,9.00
2024-01-14T23:35:33.546Z,9.60
2024-01-14T23:38:00.057Z,8.53
2024-01-14T23:40:26.608Z,9.30
2024-01-14T23:42:53.218Z,8.53
2024-01-14T23:45:19.923Z,9.03
2024-01-14T23:47:46.671Z,8.83
2024-01-14T23:50:13.249Z,9.17
2024-01-14T23:52:39.827Z,9.07
2024-01-14T23:55:06.928Z,8.23
2024-01-14T23:57:33.505Z,9.03
